Time;durP1;ratioP1;P1;durP2;ratioP2;P2;SDS_P1;SDS_P2;PMS_P1;PMS_P2;Temp;Humidity;BMP_temperature;BMP_pressure;BME280_temperature;BME280_humidity;BME280_pressure;Samples;Min_cycle;Max_cycle;Signal;HPM_P1;HPM_P2
2023/04/28 00:00:27;;;;;;;6.65;4.22;;;11.70;57.80;;;;;;5008867;28;20029;-60
2023/04/28 00:02:53;;;;;;;9.73;4.63;;;11.70;57.80;;;;;;5010556;28;20511;-61
2023/04/28 00:05:19;;;;;;;6.88;4.18;;;11.60;57.80;;;;;;4999432;28;20413;-62
2023/04/28 00:07:45;;;;;;;13.25;4.13;;;11.60;57.80;;;;;;5015682;28;20084;-61
2023/04/28 00:10:11;;;;;;;5.15;3.58;;;11.60;57.90;;;;;;5014328;28;20034;-61
2023/04/28 00:12:37;;;;;;;7.47;4.03;;;11.60;58.00;;;;;;5012912;28;20089;-60
2023/04/28 00:15:03;;;;;;;6.07;3.95;;;11.60;58.10;;;;;;5011705;28;20026;-60
2023/04/28 00:17:29;;;;;;;7.93;3.97;;;11.60;58.10;;;;;;5019736;28;20082;-61
2023/04/28 00:19:54;;;;;;;7.75;3.63;;;11.60;58.20;;;;;;5027351;28;20026;-59
2023/04/28 00:22:20;;;;;;;8.60;3.95;;;11.60;58.30;;;;;;5016298;28;20037;-61
2023/04/28 00:24:46;;;;;;;7.47;4.10;;;11.60;58.40;;;;;;5006847;28;20053;-61
2023/04/28 00:27:12;;;;;;;5.97;3.85;;;11.70;58.50;;;;;;5013375;28;20041;-62
2023/04/28 00:29:37;;;;;;;5.40;3.85;;;11.70;58.50;;;;;;5018122;28;20073;-60
2023/04/28 00:32:03;;;;;;;10.82;4.18;;;11.60;58.50;;;;;;5011154;28;20045;-60
2023/04/28 00:34:32;;;;;;;7.43;4.18;;;11.70;58.50;;;;;;5016378;28;20060;-59
2023/04/28 00:36:57;;;;;;;6.65;3.72;;;11.70;58.80;;;;;;4996739;28;20030;-60
2023/04/28 00:39:24;;;;;;;13.73;4.10;;;11.70;58.60;;;;;;5013777;28;20025;-61
2023/04/28 00:41:50;;;;;;;4.40;3.90;;;11.70;58.70;;;;;;4900479;28;20156;-60
2023/04/28 00:44:16;;;;;;;6.30;4.20;;;11.70;58.60;;;;;;5010958;28;20559;-60
2023/04/28 00:46:42;;;;;;;7.10;3.72;;;11.70;58.60;;;;;;5014832;28;20032;-60
2023/04/28 00:49:08;;;;;;;7.55;6.18;;;11.70;58.60;;;;;;5016901;28;20497;-62
2023/04/28 00:51:34;;;;;;;8.63;5.53;;;11.70;58.70;;;;;;5013647;28;20033;-61
2023/04/28 00:54:00;;;;;;;7.90;4.65;;;11.70;58.70;;;;;;5013469;28;20130;-60
2023/04/28 00:56:29;;;;;;;5.53;3.90;;;11.70;58.80;;;;;;5016559;28;20040;-60
2023/04/28 00:58:56;;;;;;;7.10;3.80;;;11.70;58.90;;;;;;5009663;28;20402;-61
2023/04/28 01:01:21;;;;;;;4.97;3.72;;;11.70;58.80;;;;;;5013536;28;20032;-60
2023/04/28 01:03:47;;;;;;;7.15;4.45;;;11.70;58.90;;;;;;5013611;28;20025;-59
2023/04/28 01:06:15;;;;;;;7.50;4.70;;;11.70;58.90;;;;;;5015492;28;20044;-62
2023/04/28 01:08:41;;;;;;;7.03;4.88;;;11.70;59.00;;;;;;4992525;28;20031;-62
2023/04/28 01:11:09;;;;;;;6.70;4.25;;;11.70;58.90;;;;;;5013617;28;20170;-59
2023/04/28 01:13:35;;;;;;;10.43;4.55;;;11.70;58.90;;;;;;5013141;28;20042;-59
2023/04/28 01:16:01;;;;;;;5.72;3.70;;;11.70;58.90;;;;;;5016212;28;20105;-60
2023/04/28 01:18:27;;;;;;;8.27;3.95;;;11.70;59.10;;;;;;5012799;28;20108;-60
2023/04/28 01:20:53;;;;;;;6.00;3.72;;;11.70;59.20;;;;;;5015111;28;20084;-61
2023/04/28 01:23:19;;;;;;;7.05;3.38;;;11.70;59.10;;;;;;5019124;28;20062;-61
2023/04/28 01:25:45;;;;;;;8.45;3.30;;;11.70;59.10;;;;;;4999650;28;20030;-60
2023/04/28 01:28:10;;;;;;;8.98;4.18;;;11.70;59.00;;;;;;5014935;28;20049;-61
2023/04/28 01:30:36;;;;;;;8.45;4.15;;;11.70;59.10;;;;;;5048194;28;20072;-61
2023/04/28 01:33:03;;;;;;;6.95;3.90;;;11.70;59.10;;;;;;5057461;28;20483;-61
2023/04/28 01:35:28;;;;;;;4.82;3.85;;;11.70;59.20;;;;;;5058484;28;20036;-59
2023/04/28 01:37:54;;;;;;;5.82;3.53;;;11.80;59.30;;;;;;5056288;28;20025;-60
2023/04/28 01:40:20;;;;;;;8.32;3.90;;;11.80;59.30;;;;;;4989587;28;20048;-59
2023/04/28 01:42:46;;;;;;;4.78;3.30;;;11.70;59.20;;;;;;5051186;28;20047;-59
2023/04/28 01:45:11;;;;;;;8.27;3.30;;;11.70;59.20;;;;;;5057500;28;20060;-60
2023/04/28 01:47:38;;;;;;;10.52;3.70;;;11.70;59.20;;;;;;5053953;28;20108;-60
2023/04/28 01:50:04;;;;;;;7.22;3.63;;;11.80;59.30;;;;;;5055053;28;20025;-60
2023/04/28 01:52:30;;;;;;;7.35;3.40;;;11.80;59.40;;;;;;5054150;28;20043;-59
2023/04/28 01:54:55;;;;;;;7.65;3.88;;;11.80;59.40;;;;;;5057427;28;20032;-61
2023/04/28 01:57:21;;;;;;;5.55;3.78;;;11.80;59.50;;;;;;5058698;28;20021;-60
2023/04/28 01:59:47;;;;;;;6.47;4.35;;;11.80;59.50;;;;;;5055823;28;20517;-60
2023/04/28 02:02:13;;;;;;;6.95;4.32;;;11.80;59.50;;;;;;5056310;28;20045;-60
2023/04/28 02:04:38;;;;;;;6.55;4.07;;;11.90;59.50;;;;;;5057868;28;20025;-61
2023/04/28 02:07:05;;;;;;;4.95;3.53;;;11.90;59.60;;;;;;5057283;28;20045;-60
2023/04/28 02:09:31;;;;;;;6.65;4.22;;;11.90;59.70;;;;;;5057736;28;20032;-59
2023/04/28 02:11:58;;;;;;;6.85;4.05;;;11.90;59.70;;;;;;5058137;28;20033;-61
2023/04/28 02:14:24;;;;;;;10.65;4.43;;;11.90;59.80;;;;;;5057900;28;20049;-60
2023/04/28 02:16:50;;;;;;;7.20;3.50;;;11.90;59.70;;;;;;5058101;28;20033;-60
2023/04/28 02:19:15;;;;;;;7.88;4.00;;;11.90;59.70;;;;;;5058106;28;20029;-60
2023/04/28 02:21:42;;;;;;;9.45;4.18;;;11.90;59.70;;;;;;5059051;28;20052;-61
2023/04/28 02:24:08;;;;;;;9.88;4.57;;;11.90;59.70;;;;;;5057064;28;20037;-62
2023/04/28 02:26:34;;;;;;;7.10;4.45;;;11.90;59.60;;;;;;5058555;28;20029;-60
2023/04/28 02:29:00;;;;;;;7.72;4.40;;;11.90;59.60;;;;;;5055520;28;20073;-61
2023/04/28 02:31:26;;;;;;;7.88;4.22;;;11.90;59.60;;;;;;5059173;28;20029;-60
2023/04/28 02:33:52;;;;;;;7.90;4.80;;;11.90;59.70;;;;;;5057812;28;20029;-60
2023/04/28 02:36:17;;;;;;;8.52;4.20;;;11.90;59.80;;;;;;5058750;28;20094;-60
2023/04/28 02:38:43;;;;;;;6.70;4.40;;;11.90;59.80;;;;;;5059191;28;20033;-61
2023/04/28 02:41:10;;;;;;;6.65;4.22;;;11.90;59.90;;;;;;4954595;28;20025;-60
2023/04/28 02:43:36;;;;;;;7.28;3.90;;;11.90;60.10;;;;;;5047657;28;20121;-60
2023/04/28 02:46:03;;;;;;;6.45;4.13;;;11.90;60.10;;;;;;5056695;28;20028;-60
2023/04/28 02:48:29;;;;;;;6.93;3.92;;;11.90;60.10;;;;;;5057950;28;20055;-60
2023/04/28 02:50:55;;;;;;;8.57;4.00;;;11.90;60.30;;;;;;5055676;28;20025;-61
2023/04/28 02:53:21;;;;;;;14.93;4.18;;;11.90;60.30;;;;;;5056312;28;20088;-61
2023/04/28 02:55:47;;;;;;;6.03;3.75;;;11.90;60.60;;;;;;5057127;28;20499;-59
2023/04/28 02:58:13;;;;;;;11.82;4.65;;;11.90;60.80;;;;;;5057484;28;20058;-60
2023/04/28 03:00:39;;;;;;;11.70;4.15;;;11.90;61.10;;;;;;5055391;28;20055;-60
2023/04/28 03:03:05;;;;;;;5.32;3.75;;;11.90;61.30;;;;;;5056603;28;20048;-60
2023/04/28 03:05:30;;;;;;;8.82;3.95;;;11.90;61.40;;;;;;5056332;28;20077;-62
2023/04/28 03:07:56;;;;;;;6.13;3.40;;;11.90;61.70;;;;;;5057254;28;20033;-60
2023/04/28 03:10:22;;;;;;;6.35;3.78;;;11.90;61.90;;;;;;5053592;28;20031;-60
2023/04/28 03:12:47;;;;;;;7.70;4.07;;;11.90;62.00;;;;;;5055811;28;20048;-61
2023/04/28 03:15:13;;;;;;;9.73;4.00;;;11.90;62.10;;;;;;5038848;28;20035;-61
2023/04/28 03:17:40;;;;;;;12.18;3.60;;;11.90;62.20;;;;;;5055619;28;20043;-61
2023/04/28 03:20:07;;;;;;;6.20;3.83;;;11.90;62.30;;;;;;5055157;28;20044;-60
2023/04/28 03:22:34;;;;;;;9.02;4.05;;;11.90;62.20;;;;;;5054401;28;20736;-60
2023/04/28 03:25:00;;;;;;;8.13;3.85;;;11.90;62.30;;;;;;5055707;28;20032;-61
2023/04/28 03:27:26;;;;;;;8.55;4.45;;;11.90;62.40;;;;;;5055596;28;20077;-60
2023/04/28 03:29:52;;;;;;;7.80;4.13;;;11.90;62.20;;;;;;5033816;28;20488;-59
2023/04/28 03:32:17;;;;;;;9.02;4.47;;;11.90;61.90;;;;;;5024105;28;20038;-61
2023/04/28 03:34:43;;;;;;;8.15;4.60;;;11.90;61.90;;;;;;5032719;28;20022;-62
2023/04/28 03:37:09;;;;;;;6.93;4.47;;;11.90;62.30;;;;;;5034111;28;20566;-60
2023/04/28 03:39:38;;;;;;;10.73;4.60;;;11.80;62.50;;;;;;5014268;28;20049;-59
2023/04/28 03:42:04;;;;;;;6.63;4.57;;;11.80;62.90;;;;;;5035983;28;20087;-61
2023/04/28 03:44:30;;;;;;;11.02;4.75;;;11.80;62.60;;;;;;5033167;28;20031;-61
2023/04/28 03:46:56;;;;;;;8.40;4.78;;;11.80;62.60;;;;;;5030268;28;20120;-60
2023/04/28 03:49:21;;;;;;;7.50;4.13;;;11.80;63.00;;;;;;5014839;28;20026;-60
2023/04/28 03:51:48;;;;;;;6.38;4.07;;;11.80;63.20;;;;;;5030839;28;20041;-60
2023/04/28 03:54:14;;;;;;;5.63;4.07;;;11.80;62.90;;;;;;5034009;28;20041;-59
2023/04/28 03:56:40;;;;;;;7.63;4.97;;;11.80;63.20;;;;;;5029934;28;20021;-61
2023/04/28 03:59:06;;;;;;;15.43;5.57;;;11.80;63.50;;;;;;5033292;28;20093;-61
2023/04/28 04:01:32;;;;;;;9.35;5.68;;;11.80;63.60;;;;;;5032933;28;20052;-61
2023/04/28 04:03:57;;;;;;;12.73;6.95;;;11.80;63.80;;;;;;5036170;28;20029;-60
2023/04/28 04:06:23;;;;;;;14.90;6.07;;;11.80;63.90;;;;;;5036765;28;20033;-60
2023/04/28 04:08:49;;;;;;;12.75;5.78;;;11.90;64.20;;;;;;5032259;28;20053;-60
2023/04/28 04:11:15;;;;;;;7.38;5.10;;;11.90;64.30;;;;;;5033634;28;20045;-60
2023/04/28 04:13:41;;;;;;;6.90;4.80;;;11.90;64.00;;;;;;5031566;28;20026;-58
2023/04/28 04:16:07;;;;;;;7.78;5.05;;;11.90;63.90;;;;;;5034960;28;20052;-60
2023/04/28 04:18:32;;;;;;;7.05;4.78;;;11.90;63.70;;;;;;5030323;28;20034;-60
2023/04/28 04:20:58;;;;;;;6.65;4.53;;;11.90;63.80;;;;;;5030273;28;20041;-60
2023/04/28 04:23:24;;;;;;;8.93;5.25;;;11.90;63.90;;;;;;5036707;28;20052;-60
2023/04/28 04:25:50;;;;;;;10.15;6.10;;;11.90;63.80;;;;;;5033523;28;20076;-60
2023/04/28 04:28:15;;;;;;;17.05;6.88;;;11.90;64.20;;;;;;5040158;28;20092;-62
2023/04/28 04:30:41;;;;;;;11.23;6.63;;;11.90;64.50;;;;;;5036869;28;20056;-59
2023/04/28 04:33:07;;;;;;;11.18;6.85;;;11.90;64.70;;;;;;5038812;28;20527;-61
2023/04/28 04:35:33;;;;;;;13.57;7.10;;;11.90;64.80;;;;;;5041056;28;20109;-60
2023/04/28 04:38:00;;;;;;;9.23;6.60;;;11.90;64.90;;;;;;5036530;28;20030;-59
2023/04/28 04:40:25;;;;;;;10.13;6.63;;;11.90;65.00;;;;;;4937770;28;21188;-61
2023/04/28 04:42:51;;;;;;;11.20;6.32;;;11.90;64.90;;;;;;5034924;28;20064;-61
2023/04/28 04:45:17;;;;;;;13.70;9.93;;;12.00;65.00;;;;;;5038635;28;20037;-60
2023/04/28 04:47:43;;;;;;;13.95;9.15;;;12.00;64.90;;;;;;5032445;28;20107;-61
2023/04/28 04:50:10;;;;;;;10.52;6.82;;;12.00;64.80;;;;;;5033918;28;20029;-61
2023/04/28 04:52:36;;;;;;;9.40;6.05;;;12.00;64.80;;;;;;5032879;28;20037;-60
2023/04/28 04:55:02;;;;;;;8.25;5.57;;;12.00;64.80;;;;;;5037674;28;20040;-60
2023/04/28 04:57:28;;;;;;;8.07;5.97;;;12.00;65.00;;;;;;5034158;28;20036;-60
2023/04/28 04:59:54;;;;;;;9.18;5.88;;;12.10;65.00;;;;;;5028099;28;20029;-60
2023/04/28 05:02:19;;;;;;;10.60;6.25;;;12.10;65.10;;;;;;5027835;28;20037;-60
2023/04/28 05:04:45;;;;;;;8.52;5.95;;;12.10;65.10;;;;;;5030578;28;20052;-60
2023/04/28 05:07:11;;;;;;;8.30;5.85;;;12.10;65.30;;;;;;5039784;28;20120;-61
2023/04/28 05:09:37;;;;;;;8.57;5.78;;;12.10;65.30;;;;;;5033940;28;20037;-60
2023/04/28 05:12:02;;;;;;;10.65;5.40;;;12.20;65.30;;;;;;5034181;28;20037;-61
2023/04/28 05:14:28;;;;;;;8.07;5.88;;;12.20;65.20;;;;;;5032976;28;20029;-61
2023/04/28 05:16:54;;;;;;;8.05;6.05;;;12.30;65.40;;;;;;5036668;28;20482;-61
2023/04/28 05:19:20;;;;;;;13.82;5.93;;;12.30;65.30;;;;;;5038218;28;20036;-61
2023/04/28 05:21:46;;;;;;;7.53;5.65;;;12.30;65.30;;;;;;5034648;28;20044;-59
2023/04/28 05:24:13;;;;;;;7.90;5.45;;;12.30;65.30;;;;;;5037259;28;20037;-60
2023/04/28 05:26:39;;;;;;;8.65;5.93;;;12.40;65.60;;;;;;5037553;28;20036;-60
2023/04/28 05:29:05;;;;;;;8.13;5.15;;;12.40;65.60;;;;;;5038242;28;20133;-61
2023/04/28 05:31:30;;;;;;;7.32;6.00;;;12.40;65.50;;;;;;5037498;28;20048;-61
2023/04/28 05:33:57;;;;;;;9.60;5.88;;;12.40;65.40;;;;;;5031116;28;20040;-60
2023/04/28 05:36:23;;;;;;;9.32;6.60;;;12.50;65.20;;;;;;5032178;28;20424;-59
2023/04/28 05:38:49;;;;;;;7.95;5.93;;;12.50;65.00;;;;;;5035590;28;20029;-59
2023/04/28 05:41:14;;;;;;;8.30;6.13;;;12.50;65.00;;;;;;4946429;28;20037;-59
2023/04/28 05:43:40;;;;;;;9.65;6.10;;;12.60;65.10;;;;;;5033294;28;20041;-60
2023/04/28 05:46:06;;;;;;;7.35;5.60;;;12.60;64.90;;;;;;5035435;28;20029;-60
2023/04/28 05:48:31;;;;;;;10.98;5.57;;;12.60;64.80;;;;;;5037053;28;20080;-61
2023/04/28 05:50:57;;;;;;;12.77;6.35;;;12.60;64.60;;;;;;5018669;28;20053;-60
2023/04/28 05:53:23;;;;;;;8.52;5.82;;;12.60;64.60;;;;;;5018702;28;20044;-61
2023/04/28 05:55:48;;;;;;;8.23;5.72;;;12.70;64.70;;;;;;5028746;28;20040;-61
2023/04/28 05:58:14;;;;;;;7.22;5.65;;;12.70;64.70;;;;;;5035158;28;20033;-60
2023/04/28 06:00:40;;;;;;;11.63;6.03;;;12.70;64.80;;;;;;5030805;28;20628;-60
2023/04/28 06:03:09;;;;;;;8.85;6.00;;;12.70;64.80;;;;;;5037944;28;20042;-60
2023/04/28 06:05:35;;;;;;;13.95;6.28;;;12.80;64.80;;;;;;5036635;28;20124;-61
2023/04/28 06:08:02;;;;;;;8.88;6.13;;;12.80;64.60;;;;;;5031502;28;20076;-60
2023/04/28 06:10:28;;;;;;;7.65;6.13;;;12.80;64.80;;;;;;5033230;28;20029;-62
2023/04/28 06:12:53;;;;;;;12.57;6.38;;;12.80;65.00;;;;;;5036092;28;20060;-60
2023/04/28 06:15:19;;;;;;;8.98;6.10;;;12.90;65.20;;;;;;5030301;28;20033;-61
2023/04/28 06:17:45;;;;;;;9.60;6.03;;;12.90;65.30;;;;;;5033378;28;20021;-62
2023/04/28 06:20:12;;;;;;;10.23;5.95;;;12.90;66.10;;;;;;5019326;28;20029;-60
2023/04/28 06:22:39;;;;;;;7.93;5.93;;;13.00;65.30;;;;;;5029617;28;20085;-62
2023/04/28 06:25:05;;;;;;;9.65;6.53;;;13.00;65.20;;;;;;5025288;28;20048;-62
2023/04/28 06:27:31;;;;;;;11.73;7.05;;;13.10;65.30;;;;;;5036359;28;20043;-61
2023/04/28 06:29:57;;;;;;;11.35;7.13;;;13.10;65.30;;;;;;5021274;28;20626;-60
2023/04/28 06:32:23;;;;;;;12.68;6.85;;;13.10;65.40;;;;;;5030480;28;20501;-61
2023/04/28 06:34:49;;;;;;;11.85;6.80;;;13.10;65.20;;;;;;5023625;28;20029;-62
2023/04/28 06:37:15;;;;;;;8.70;6.32;;;13.10;65.40;;;;;;5025025;28;20392;-60
2023/04/28 06:39:42;;;;;;;8.77;6.70;;;13.10;65.80;;;;;;5007521;28;20022;-59
2023/04/28 06:42:08;;;;;;;10.73;6.55;;;13.10;65.90;;;;;;5018032;28;20046;-61
2023/04/28 06:44:33;;;;;;;12.70;6.30;;;13.10;65.80;;;;;;5010101;28;20025;-60
2023/04/28 06:46:59;;;;;;;10.98;6.70;;;13.10;66.00;;;;;;5034434;28;20028;-61
2023/04/28 06:49:25;;;;;;;10.00;6.60;;;13.10;66.10;;;;;;5014858;28;20044;-61
2023/04/28 06:51:51;;;;;;;11.48;7.38;;;13.10;66.10;;;;;;5033580;28;20029;-60
2023/04/28 06:54:17;;;;;;;8.93;7.07;;;13.10;66.20;;;;;;5027333;28;20352;-61
2023/04/28 06:56:42;;;;;;;16.27;6.88;;;13.10;66.40;;;;;;5033521;28;20029;-63
2023/04/28 06:59:08;;;;;;;8.68;6.53;;;13.10;66.50;;;;;;5033131;28;20026;-61
2023/04/28 07:01:34;;;;;;;11.25;7.18;;;13.10;66.50;;;;;;5016952;28;20029;-62
2023/04/28 07:04:00;;;;;;;12.10;7.18;;;13.10;66.60;;;;;;5031551;28;20037;-60
2023/04/28 07:06:26;;;;;;;9.90;8.10;;;13.20;66.90;;;;;;5035244;28;20428;-60
2023/04/28 07:08:52;;;;;;;14.05;9.95;;;13.20;67.00;;;;;;5034177;28;20041;-62
2023/04/28 07:11:18;;;;;;;11.68;8.35;;;13.20;67.00;;;;;;5036444;28;20029;-62
2023/04/28 07:13:48;;;;;;;12.25;7.95;;;13.20;67.30;;;;;;5037073;28;20036;-62
2023/04/28 07:16:14;;;;;;;11.68;8.32;;;13.30;67.30;;;;;;5036270;28;20075;-62
2023/04/28 07:18:39;;;;;;;12.15;7.63;;;13.30;67.20;;;;;;5037624;28;20063;-61
2023/04/28 07:21:05;;;;;;;13.63;7.28;;;13.30;67.30;;;;;;5031210;28;20021;-61
2023/04/28 07:23:31;;;;;;;11.48;7.78;;;13.30;67.50;;;;;;5035816;28;20105;-61
2023/04/28 07:25:57;;;;;;;10.80;7.55;;;13.30;67.60;;;;;;5042050;28;20141;-61
2023/04/28 07:28:23;;;;;;;9.30;7.05;;;13.30;67.70;;;;;;5035642;28;20087;-60
2023/04/28 07:30:48;;;;;;;10.85;8.13;;;13.30;67.80;;;;;;5017247;28;20511;-61
2023/04/28 07:33:14;;;;;;;11.85;7.72;;;13.30;67.80;;;;;;5032583;28;20357;-61
2023/04/28 07:35:40;;;;;;;48.33;35.97;;;13.30;67.80;;;;;;5033322;28;20049;-62
2023/04/28 07:38:06;;;;;;;19.65;14.40;;;13.30;67.90;;;;;;5034410;28;20038;-63
2023/04/28 07:40:31;;;;;;;12.18;8.73;;;13.30;68.00;;;;;;5031880;28;20094;-64
2023/04/28 07:42:57;;;;;;;9.90;7.88;;;13.40;68.10;;;;;;4955763;28;20048;-62
2023/04/28 07:45:23;;;;;;;9.40;6.65;;;13.30;68.10;;;;;;5014747;28;20036;-61
2023/04/28 07:47:48;;;;;;;10.32;7.00;;;13.40;69.10;;;;;;5030600;28;20105;-62
2023/04/28 07:50:15;;;;;;;10.38;6.43;;;13.40;68.50;;;;;;5017615;28;20035;-62
2023/04/28 07:52:40;;;;;;;8.60;6.10;;;13.40;68.50;;;;;;5032117;28;20031;-62
2023/04/28 07:55:06;;;;;;;7.30;5.10;;;13.40;68.50;;;;;;5017337;28;20136;-62
2023/04/28 07:57:32;;;;;;;6.93;5.68;;;13.50;68.70;;;;;;5032572;28;20026;-62
2023/04/28 07:59:58;;;;;;;7.97;5.88;;;13.50;68.90;;;;;;5029190;28;20033;-61
2023/04/28 08:02:24;;;;;;;7.72;5.63;;;13.50;69.10;;;;;;5026383;28;20041;-62
2023/04/28 08:04:50;;;;;;;8.35;5.63;;;13.60;69.20;;;;;;5035926;28;20391;-61
2023/04/28 08:07:16;;;;;;;7.60;5.60;;;13.60;69.10;;;;;;5032501;28;20136;-61
2023/04/28 08:09:45;;;;;;;6.63;5.28;;;13.60;69.20;;;;;;5032799;28;20029;-62
2023/04/28 08:12:12;;;;;;;6.05;4.93;;;13.70;69.50;;;;;;5034555;28;20040;-61
2023/04/28 08:14:37;;;;;;;7.45;4.80;;;13.70;69.30;;;;;;5036773;28;20117;-61
2023/04/28 08:17:03;;;;;;;4.75;4.03;;;13.70;69.50;;;;;;5035897;28;20049;-64
2023/04/28 08:19:28;;;;;;;5.32;4.25;;;13.80;69.70;;;;;;5039643;28;20712;-61
2023/04/28 08:21:54;;;;;;;5.03;3.95;;;13.90;70.00;;;;;;5033905;28;20080;-62
2023/04/28 08:24:20;;;;;;;6.57;3.72;;;13.90;70.00;;;;;;5032251;28;20036;-61
2023/04/28 08:26:45;;;;;;;4.50;3.50;;;13.90;70.00;;;;;;5033322;28;20030;-61
2023/04/28 08:29:11;;;;;;;5.28;3.60;;;14.00;70.00;;;;;;5037668;28;20061;-61
2023/04/28 08:31:37;;;;;;;4.00;3.53;;;14.00;70.10;;;;;;5034473;28;20053;-61
2023/04/28 08:34:03;;;;;;;5.03;3.72;;;14.00;70.10;;;;;;5030967;28;20033;-62
2023/04/28 08:36:31;;;;;;;4.85;3.78;;;14.10;70.30;;;;;;5034392;28;20021;-61
2023/04/28 08:39:02;;;;;;;7.00;3.17;;;14.10;70.50;;;;;;5034855;28;20025;-62
2023/04/28 08:41:30;;;;;;;4.05;3.30;;;14.20;70.30;;;;;;4968567;28;20025;-61
2023/04/28 08:43:57;;;;;;;4.28;3.60;;;14.20;70.20;;;;;;5030272;28;20033;-62
2023/04/28 08:46:26;;;;;;;5.78;3.55;;;14.20;70.60;;;;;;5033680;28;20025;-62
2023/04/28 08:48:58;;;;;;;4.65;3.58;;;14.30;70.60;;;;;;5030854;28;20036;-61
2023/04/28 08:51:32;;;;;;;6.78;4.78;;;14.30;70.90;;;;;;5034344;28;20048;-60
2023/04/28 08:54:01;;;;;;;7.15;4.63;;;14.30;70.50;;;;;;5030811;28;20492;-62
2023/04/28 08:56:32;;;;;;;4.88;3.60;;;14.30;70.20;;;;;;5033688;28;20091;-63
2023/04/28 08:59:02;;;;;;;3.92;3.42;;;14.40;70.70;;;;;;5032306;28;20026;-62
2023/04/28 09:01:27;;;;;;;4.15;3.22;;;14.60;71.10;;;;;;5036270;28;20438;-61
2023/04/28 09:03:53;;;;;;;2.88;2.58;;;14.40;70.60;;;;;;5037245;28;20033;-62
2023/04/28 09:06:20;;;;;;;4.53;3.22;;;14.40;70.40;;;;;;5034993;28;20049;-63
2023/04/28 09:08:46;;;;;;;4.03;3.00;;;14.40;70.40;;;;;;5034348;28;20688;-61
2023/04/28 09:11:12;;;;;;;5.95;3.67;;;14.50;70.60;;;;;;5033063;28;20052;-63
2023/04/28 09:13:39;;;;;;;3.83;2.67;;;14.50;70.70;;;;;;5034836;28;20036;-63
2023/04/28 09:16:05;;;;;;;3.72;2.45;;;14.50;70.90;;;;;;5030557;28;20033;-62
2023/04/28 09:18:32;;;;;;;2.65;2.10;;;14.60;70.80;;;;;;5029736;28;20044;-62
2023/04/28 09:21:04;;;;;;;2.65;1.80;;;14.60;70.60;;;;;;5027924;28;20036;-61
2023/04/28 09:23:30;;;;;;;1.85;1.65;;;14.60;71.70;;;;;;5014977;28;20075;-61
2023/04/28 09:26:05;;;;;;;2.20;1.70;;;14.60;70.80;;;;;;5027848;28;20041;-61
2023/04/28 09:28:31;;;;;;;2.05;1.58;;;14.70;71.00;;;;;;5030887;28;20087;-61
2023/04/28 09:30:57;;;;;;;6.50;1.75;;;14.70;70.90;;;;;;5032819;28;20064;-62
2023/04/28 09:33:23;;;;;;;1.75;1.30;;;14.70;70.50;;;;;;5032305;28;20042;-64
2023/04/28 09:35:49;;;;;;;1.10;1.02;;;14.80;71.10;;;;;;5031753;28;20025;-62
2023/04/28 09:38:15;;;;;;;1.40;1.20;;;14.80;71.00;;;;;;5031418;28;20087;-62
2023/04/28 09:40:55;;;;;;;1.75;1.40;;;14.90;71.50;;;;;;5032126;28;20782;-61
2023/04/28 09:43:33;;;;;;;2.20;1.70;;;14.90;72.80;;;;;;5035665;28;20041;-63
2023/04/28 09:46:04;;;;;;;2.30;1.77;;;15.00;72.20;;;;;;5017362;28;20467;-62
2023/04/28 09:48:34;;;;;;;3.17;1.83;;;15.10;71.90;;;;;;5034875;28;20033;-63
2023/04/28 09:51:05;;;;;;;3.08;1.98;;;15.20;72.00;;;;;;5035301;28;20049;-61
2023/04/28 09:53:31;;;;;;;2.08;1.55;;;15.30;71.30;;;;;;5035348;28;20022;-62
2023/04/28 09:55:59;;;;;;;2.45;1.52;;;15.40;71.60;;;;;;5033883;28;20050;-62
2023/04/28 09:58:26;;;;;;;2.80;1.30;;;15.50;71.90;;;;;;5033294;28;20100;-61
2023/04/28 10:00:54;;;;;;;1.40;1.30;;;15.60;71.80;;;;;;5033915;28;20029;-63
2023/04/28 10:03:22;;;;;;;1.02;1.00;;;15.70;71.70;;;;;;5034741;28;20124;-62
2023/04/28 10:05:50;;;;;;;1.67;1.42;;;15.80;71.60;;;;;;5032249;28;20621;-61
2023/04/28 10:08:16;;;;;;;2.47;1.52;;;15.90;71.50;;;;;;5030958;28;20052;-61
2023/04/28 10:10:43;;;;;;;1.30;1.17;;;16.00;71.50;;;;;;5039775;28;20021;-60
2023/04/28 10:13:09;;;;;;;1.85;1.20;;;16.10;71.20;;;;;;5015702;28;20029;-62
2023/04/28 10:15:36;;;;;;;1.98;0.95;;;16.20;71.00;;;;;;5034461;28;20014;-61
2023/04/28 10:18:04;;;;;;;0.90;0.90;;;16.30;71.00;;;;;;5031242;28;20026;-61
2023/04/28 10:20:30;;;;;;;2.10;0.80;;;16.40;70.70;;;;;;5035771;28;20022;-62
2023/04/28 10:23:20;;;;;;;1.10;0.70;;;16.40;70.60;;;;;;5032853;28;20045;-63
2023/04/28 10:25:48;;;;;;;0.80;0.70;;;16.50;70.90;;;;;;5032868;28;20033;-62
2023/04/28 10:28:15;;;;;;;0.75;0.70;;;16.50;70.20;;;;;;5036710;28;20028;-62
2023/04/28 10:30:41;;;;;;;1.30;0.98;;;16.60;70.40;;;;;;5028301;28;20045;-61
2023/04/28 10:33:12;;;;;;;1.15;0.90;;;16.70;70.80;;;;;;5035085;28;20460;-61
2023/04/28 10:35:39;;;;;;;1.25;0.85;;;16.80;71.90;;;;;;5032934;28;20060;-62
2023/04/28 10:38:11;;;;;;;0.90;0.90;;;16.80;70.80;;;;;;5037493;28;20484;-61
2023/04/28 10:40:40;;;;;;;0.77;0.77;;;17.00;70.90;;;;;;4937318;28;20068;-61
2023/04/28 10:43:08;;;;;;;1.02;1.00;;;17.00;70.30;;;;;;5036073;28;20041;-61
2023/04/28 10:45:51;;;;;;;0.70;0.70;;;17.10;70.30;;;;;;5035690;28;20021;-62
2023/04/28 10:48:32;;;;;;;0.63;0.63;;;17.20;71.10;;;;;;5035253;28;20041;-62
2023/04/28 10:51:04;;;;;;;0.60;0.60;;;17.30;70.40;;;;;;5034303;28;20033;-61
2023/04/28 10:53:44;;;;;;;1.73;1.20;;;17.40;70.70;;;;;;5034075;28;20507;-62
2023/04/28 10:56:26;;;;;;;1.77;1.00;;;17.50;71.10;;;;;;5035571;28;20088;-61
2023/04/28 10:58:56;;;;;;;4.78;0.80;;;17.60;70.30;;;;;;5030327;28;20031;-62
2023/04/28 11:01:24;;;;;;;0.70;0.63;;;17.70;69.40;;;;;;5028048;28;20026;-63
2023/04/28 11:04:02;;;;;;;0.63;0.63;;;17.80;69.40;;;;;;5030134;28;20045;-63
2023/04/28 11:06:38;;;;;;;0.52;0.52;;;17.80;69.20;;;;;;5033808;28;20164;-62
2023/04/28 11:09:13;;;;;;;0.40;0.40;;;17.90;69.30;;;;;;5030477;28;20037;-64
2023/04/28 11:11:39;;;;;;;1.20;0.45;;;17.90;69.00;;;;;;5036233;28;20101;-63
2023/04/28 11:14:17;;;;;;;0.85;0.60;;;17.90;68.50;;;;;;5030278;28;20515;-62
2023/04/28 11:16:51;;;;;;;1.15;0.65;;;17.90;68.70;;;;;;5030562;28;20032;-61
2023/04/28 11:19:23;;;;;;;1.58;0.80;;;17.90;68.60;;;;;;5032206;28;20033;-63
2023/04/28 11:21:50;;;;;;;0.65;0.65;;;17.80;68.80;;;;;;5035853;28;20033;-61
2023/04/28 11:24:16;;;;;;;0.63;0.60;;;17.80;68.80;;;;;;5028170;28;20036;-62
2023/04/28 11:26:43;;;;;;;1.52;0.65;;;17.80;69.60;;;;;;5030715;28;20026;-62
2023/04/28 11:29:10;;;;;;;1.73;0.73;;;17.80;69.20;;;;;;5034440;28;20465;-62
2023/04/28 11:31:36;;;;;;;0.80;0.80;;;17.80;69.50;;;;;;5032694;28;20035;-62
2023/04/28 11:34:10;;;;;;;0.82;0.70;;;17.80;70.00;;;;;;5026002;28;20040;-62
2023/04/28 11:36:38;;;;;;;0.60;0.60;;;17.80;69.80;;;;;;5026033;28;20033;-63
2023/04/28 11:39:07;;;;;;;1.38;1.10;;;17.90;69.60;;;;;;5035609;28;20037;-62
2023/04/28 11:41:35;;;;;;;1.05;0.98;;;17.90;69.40;;;;;;4960201;28;20037;-60
2023/04/28 11:44:16;;;;;;;0.77;0.77;;;18.00;69.60;;;;;;5030335;28;20026;-61
2023/04/28 11:46:50;;;;;;;1.38;1.10;;;18.00;69.80;;;;;;5030574;28;20171;-63
2023/04/28 11:49:17;;;;;;;1.33;1.23;;;18.00;69.80;;;;;;5030485;28;20034;-61
2023/04/28 11:51:48;;;;;;;1.05;0.70;;;18.10;69.30;;;;;;5032809;28;20036;-63
2023/04/28 11:54:26;;;;;;;2.03;1.45;;;18.10;69.30;;;;;;5032076;28;20036;-61
2023/04/28 11:56:52;;;;;;;1.95;1.10;;;18.10;69.30;;;;;;5015643;28;20151;-62
2023/04/28 11:59:23;;;;;;;0.70;0.70;;;18.20;69.30;;;;;;5033572;28;20060;-62
2023/04/28 12:01:50;;;;;;;2.05;0.70;;;18.30;69.10;;;;;;5032228;28;20040;-62
2023/04/28 12:04:36;;;;;;;1.08;0.60;;;18.30;68.70;;;;;;5032183;28;20034;-63
2023/04/28 12:07:12;;;;;;;0.63;0.63;;;18.40;68.90;;;;;;5033769;28;20036;-62
2023/04/28 12:09:40;;;;;;;1.20;0.70;;;18.40;68.80;;;;;;5032460;28;20029;-64
2023/04/28 12:12:07;;;;;;;0.60;0.60;;;18.50;68.70;;;;;;5034878;28;20052;-62
2023/04/28 12:14:53;;;;;;;0.60;0.60;;;18.60;69.00;;;;;;5031993;28;20026;-62
2023/04/28 12:17:32;;;;;;;0.50;0.50;;;18.80;69.40;;;;;;5034021;28;20022;-63
2023/04/28 12:20:01;;;;;;;1.02;0.80;;;19.00;69.20;;;;;;5012379;28;20041;-62
2023/04/28 12:22:27;;;;;;;1.75;0.60;;;19.20;68.80;;;;;;5034746;28;20067;-62
2023/04/28 12:25:06;;;;;;;1.42;0.63;;;19.40;67.90;;;;;;5030566;28;20018;-61
2023/04/28 12:27:37;;;;;;;1.05;0.77;;;19.60;67.20;;;;;;5033535;28;20072;-62
2023/04/28 12:30:23;;;;;;;0.88;0.80;;;19.70;66.30;;;;;;5025857;28;20037;-61
2023/04/28 12:32:50;;;;;;;1.13;0.65;;;19.80;65.50;;;;;;5032074;28;20498;-62
2023/04/28 12:35:16;;;;;;;1.45;0.52;;;19.80;65.20;;;;;;5033938;28;20025;-63
2023/04/28 12:37:42;;;;;;;0.50;0.50;;;19.90;64.50;;;;;;5028761;28;20090;-61
2023/04/28 12:40:09;;;;;;;0.57;0.57;;;19.90;64.80;;;;;;4963816;28;20582;-61
2023/04/28 12:42:35;;;;;;;0.82;0.80;;;19.90;65.60;;;;;;5033768;28;20045;-63
2023/04/28 12:45:01;;;;;;;0.95;0.50;;;20.00;65.30;;;;;;5031753;28;20104;-63